sensor_id;sensor_type;location;lat;lon;timestamp;P1;durP1;ratioP1;P2;durP2;ratioP2
80963;SDS011;70425;59.322;13.486;2023-08-08T00:00:54;1.37;;;1.20;;
80963;SDS011;70425;59.322;13.486;2023-08-08T00:03:44;1.20;;;1.10;;
80963;SDS011;70425;59.322;13.486;2023-08-08T00:06:34;2.60;;;1.10;;
80963;SDS011;70425;59.322;13.486;2023-08-08T00:09:24;1.80;;;1.20;;
80963;SDS011;70425;59.322;13.486;2023-08-08T00:12:15;1.60;;;1.23;;
80963;SDS011;70425;59.322;13.486;2023-08-08T00:15:07;1.93;;;1.27;;
80963;SDS011;70425;59.322;13.486;2023-08-08T00:45:04;0.90;;;0.90;;
80963;SDS011;70425;59.322;13.486;2023-08-08T00:50:41;3.07;;;0.93;;
80963;SDS011;70425;59.322;13.486;2023-08-08T00:56:25;2.13;;;1.30;;
80963;SDS011;70425;59.322;13.486;2023-08-08T00:59:15;1.50;;;1.00;;
80963;SDS011;70425;59.322;13.486;2023-08-08T01:02:06;5.73;;;1.30;;
80963;SDS011;70425;59.322;13.486;2023-08-08T01:04:56;3.83;;;1.07;;
80963;SDS011;70425;59.322;13.486;2023-08-08T01:07:46;1.30;;;1.20;;
80963;SDS011;70425;59.322;13.486;2023-08-08T01:10:32;1.90;;;1.00;;
80963;SDS011;70425;59.322;13.486;2023-08-08T01:17:17;2.37;;;1.00;;
80963;SDS011;70425;59.322;13.486;2023-08-08T01:36:53;4.83;;;1.17;;
80963;SDS011;70425;59.322;13.486;2023-08-08T01:39:46;2.83;;;1.00;;
80963;SDS011;70425;59.322;13.486;2023-08-08T01:42:43;1.93;;;1.10;;
80963;SDS011;70425;59.322;13.486;2023-08-08T01:45:33;1.67;;;1.00;;
80963;SDS011;70425;59.322;13.486;2023-08-08T02:01:51;4.03;;;1.20;;
80963;SDS011;70425;59.322;13.486;2023-08-08T02:04:56;3.10;;;1.17;;
80963;SDS011;70425;59.322;13.486;2023-08-08T02:10:41;2.80;;;1.20;;
80963;SDS011;70425;59.322;13.486;2023-08-08T02:13:30;1.20;;;1.10;;
80963;SDS011;70425;59.322;13.486;2023-08-08T02:16:19;2.47;;;1.20;;
80963;SDS011;70425;59.322;13.486;2023-08-08T02:19:07;2.47;;;0.93;;
80963;SDS011;70425;59.322;13.486;2023-08-08T02:21:56;7.13;;;1.10;;
80963;SDS011;70425;59.322;13.486;2023-08-08T02:24:47;4.77;;;1.30;;
80963;SDS011;70425;59.322;13.486;2023-08-08T02:27:43;1.13;;;1.00;;
80963;SDS011;70425;59.322;13.486;2023-08-08T02:30:32;1.70;;;1.23;;
80963;SDS011;70425;59.322;13.486;2023-08-08T02:33:22;3.40;;;1.20;;
80963;SDS011;70425;59.322;13.486;2023-08-08T02:39:08;5.50;;;1.23;;
80963;SDS011;70425;59.322;13.486;2023-08-08T02:45:02;3.87;;;1.20;;
80963;SDS011;70425;59.322;13.486;2023-08-08T02:47:53;5.07;;;0.97;;
80963;SDS011;70425;59.322;13.486;2023-08-08T03:01:11;3.73;;;1.30;;
80963;SDS011;70425;59.322;13.486;2023-08-08T03:06:41;2.00;;;1.10;;
80963;SDS011;70425;59.322;13.486;2023-08-08T03:09:31;1.97;;;1.10;;
80963;SDS011;70425;59.322;13.486;2023-08-08T03:16:05;3.97;;;1.27;;
80963;SDS011;70425;59.322;13.486;2023-08-08T03:43:59;2.60;;;1.20;;
80963;SDS011;70425;59.322;13.486;2023-08-08T03:49:32;3.40;;;1.37;;
80963;SDS011;70425;59.322;13.486;2023-08-08T03:52:27;4.03;;;1.10;;
80963;SDS011;70425;59.322;13.486;2023-08-08T03:55:21;2.73;;;1.10;;
80963;SDS011;70425;59.322;13.486;2023-08-08T03:58:13;1.37;;;1.10;;
80963;SDS011;70425;59.322;13.486;2023-08-08T04:01:04;1.67;;;1.10;;
80963;SDS011;70425;59.322;13.486;2023-08-08T04:03:53;6.37;;;1.20;;
80963;SDS011;70425;59.322;13.486;2023-08-08T04:10:29;4.50;;;1.67;;
80963;SDS011;70425;59.322;13.486;2023-08-08T04:16:13;2.77;;;1.70;;
80963;SDS011;70425;59.322;13.486;2023-08-08T04:32:32;4.93;;;1.53;;
80963;SDS011;70425;59.322;13.486;2023-08-08T04:38:45;1.90;;;1.80;;
80963;SDS011;70425;59.322;13.486;2023-08-08T04:41:36;3.27;;;1.77;;
80963;SDS011;70425;59.322;13.486;2023-08-08T04:44:27;2.47;;;1.63;;
80963;SDS011;70425;59.322;13.486;2023-08-08T04:47:16;5.30;;;1.70;;
80963;SDS011;70425;59.322;13.486;2023-08-08T04:50:07;5.43;;;1.57;;
80963;SDS011;70425;59.322;13.486;2023-08-08T04:52:58;4.40;;;1.50;;
80963;SDS011;70425;59.322;13.486;2023-08-08T04:56:04;6.03;;;1.77;;
80963;SDS011;70425;59.322;13.486;2023-08-08T04:58:55;4.07;;;1.70;;
80963;SDS011;70425;59.322;13.486;2023-08-08T05:01:43;5.07;;;1.60;;
80963;SDS011;70425;59.322;13.486;2023-08-08T05:04:32;2.03;;;1.13;;
80963;SDS011;70425;59.322;13.486;2023-08-08T05:07:22;1.57;;;1.30;;
80963;SDS011;70425;59.322;13.486;2023-08-08T05:10:12;3.87;;;1.70;;
80963;SDS011;70425;59.322;13.486;2023-08-08T05:13:02;2.00;;;1.33;;
80963;SDS011;70425;59.322;13.486;2023-08-08T05:16:17;1.73;;;1.13;;
80963;SDS011;70425;59.322;13.486;2023-08-08T05:21:59;1.40;;;1.30;;
80963;SDS011;70425;59.322;13.486;2023-08-08T05:24:51;2.37;;;1.30;;
80963;SDS011;70425;59.322;13.486;2023-08-08T05:40:55;6.37;;;1.43;;
80963;SDS011;70425;59.322;13.486;2023-08-08T05:54:43;1.87;;;1.57;;
80963;SDS011;70425;59.322;13.486;2023-08-08T06:00:21;3.57;;;1.60;;
80963;SDS011;70425;59.322;13.486;2023-08-08T06:03:30;5.87;;;1.57;;
80963;SDS011;70425;59.322;13.486;2023-08-08T06:06:19;7.37;;;1.73;;
80963;SDS011;70425;59.322;13.486;2023-08-08T06:09:09;3.90;;;1.07;;
80963;SDS011;70425;59.322;13.486;2023-08-08T06:12:05;3.93;;;1.67;;
80963;SDS011;70425;59.322;13.486;2023-08-08T06:14:58;4.23;;;1.77;;
80963;SDS011;70425;59.322;13.486;2023-08-08T06:17:51;2.10;;;1.90;;
80963;SDS011;70425;59.322;13.486;2023-08-08T06:20:40;2.80;;;1.90;;
80963;SDS011;70425;59.322;13.486;2023-08-08T06:23:46;6.23;;;1.63;;
80963;SDS011;70425;59.322;13.486;2023-08-08T06:26:35;1.67;;;1.57;;
80963;SDS011;70425;59.322;13.486;2023-08-08T06:29:24;4.77;;;1.67;;
80963;SDS011;70425;59.322;13.486;2023-08-08T06:32:13;1.80;;;1.33;;
80963;SDS011;70425;59.322;13.486;2023-08-08T06:35:01;4.90;;;1.57;;
80963;SDS011;70425;59.322;13.486;2023-08-08T06:37:52;2.70;;;1.43;;
80963;SDS011;70425;59.322;13.486;2023-08-08T06:43:27;3.47;;;1.70;;
80963;SDS011;70425;59.322;13.486;2023-08-08T06:46:16;2.40;;;1.40;;
80963;SDS011;70425;59.322;13.486;2023-08-08T06:49:24;1.53;;;1.43;;
80963;SDS011;70425;59.322;13.486;2023-08-08T07:05:21;1.60;;;1.50;;
80963;SDS011;70425;59.322;13.486;2023-08-08T07:11:10;2.43;;;1.40;;
80963;SDS011;70425;59.322;13.486;2023-08-08T07:14:16;3.07;;;1.50;;
80963;SDS011;70425;59.322;13.486;2023-08-08T07:17:06;1.53;;;1.30;;
80963;SDS011;70425;59.322;13.486;2023-08-08T07:19:56;1.60;;;1.10;;
80963;SDS011;70425;59.322;13.486;2023-08-08T07:22:53;2.87;;;1.20;;
80963;SDS011;70425;59.322;13.486;2023-08-08T07:25:45;1.80;;;1.13;;
80963;SDS011;70425;59.322;13.486;2023-08-08T07:42:03;1.20;;;1.10;;
80963;SDS011;70425;59.322;13.486;2023-08-08T07:59:15;2.20;;;1.30;;
80963;SDS011;70425;59.322;13.486;2023-08-08T08:02:33;1.10;;;1.10;;
80963;SDS011;70425;59.322;13.486;2023-08-08T08:06:00;1.17;;;0.90;;
80963;SDS011;70425;59.322;13.486;2023-08-08T08:09:20;1.10;;;1.10;;
80963;SDS011;70425;59.322;13.486;2023-08-08T08:12:56;1.10;;;1.10;;
80963;SDS011;70425;59.322;13.486;2023-08-08T08:20:08;1.00;;;1.00;;
80963;SDS011;70425;59.322;13.486;2023-08-08T08:23:39;1.60;;;1.10;;
80963;SDS011;70425;59.322;13.486;2023-08-08T08:26:41;1.30;;;1.20;;
80963;SDS011;70425;59.322;13.486;2023-08-08T08:29:40;1.00;;;0.90;;
80963;SDS011;70425;59.322;13.486;2023-08-08T08:33:16;1.87;;;1.00;;
80963;SDS011;70425;59.322;13.486;2023-08-08T08:36:45;1.57;;;1.10;;
80963;SDS011;70425;59.322;13.486;2023-08-08T08:55:47;0.90;;;0.90;;
80963;SDS011;70425;59.322;13.486;2023-08-08T08:58:42;0.90;;;0.80;;
80963;SDS011;70425;59.322;13.486;2023-08-08T09:01:54;2.10;;;0.90;;
80963;SDS011;70425;59.322;13.486;2023-08-08T09:15:11;0.93;;;0.80;;
80963;SDS011;70425;59.322;13.486;2023-08-08T09:18:02;1.20;;;0.90;;
80963;SDS011;70425;59.322;13.486;2023-08-08T09:33:20;0.70;;;0.60;;
80963;SDS011;70425;59.322;13.486;2023-08-08T09:39:18;2.10;;;0.83;;
80963;SDS011;70425;59.322;13.486;2023-08-08T09:42:08;0.70;;;0.70;;
80963;SDS011;70425;59.322;13.486;2023-08-08T09:44:59;2.13;;;0.70;;
80963;SDS011;70425;59.322;13.486;2023-08-08T09:47:52;2.60;;;0.80;;
80963;SDS011;70425;59.322;13.486;2023-08-08T09:50:42;0.83;;;0.70;;
80963;SDS011;70425;59.322;13.486;2023-08-08T09:53:50;0.90;;;0.90;;
80963;SDS011;70425;59.322;13.486;2023-08-08T09:56:41;1.27;;;1.03;;
80963;SDS011;70425;59.322;13.486;2023-08-08T09:59:31;1.00;;;1.00;;
80963;SDS011;70425;59.322;13.486;2023-08-08T10:02:24;1.10;;;1.10;;
80963;SDS011;70425;59.322;13.486;2023-08-08T10:05:15;1.10;;;1.10;;
80963;SDS011;70425;59.322;13.486;2023-08-08T10:21:54;1.30;;;1.20;;
80963;SDS011;70425;59.322;13.486;2023-08-08T10:35:34;1.20;;;1.00;;
80963;SDS011;70425;59.322;13.486;2023-08-08T10:41:14;1.33;;;1.20;;
80963;SDS011;70425;59.322;13.486;2023-08-08T10:44:12;2.00;;;1.20;;
80963;SDS011;70425;59.322;13.486;2023-08-08T11:00:27;1.07;;;0.93;;
80963;SDS011;70425;59.322;13.486;2023-08-08T11:09:17;4.00;;;1.10;;
80963;SDS011;70425;59.322;13.486;2023-08-08T11:12:13;1.10;;;0.97;;
80963;SDS011;70425;59.322;13.486;2023-08-08T11:15:04;4.90;;;1.07;;
80963;SDS011;70425;59.322;13.486;2023-08-08T11:18:02;0.93;;;0.90;;
80963;SDS011;70425;59.322;13.486;2023-08-08T11:20:56;0.80;;;0.80;;
80963;SDS011;70425;59.322;13.486;2023-08-08T11:23:47;1.60;;;0.90;;
80963;SDS011;70425;59.322;13.486;2023-08-08T11:26:37;1.10;;;1.00;;
80963;SDS011;70425;59.322;13.486;2023-08-08T11:29:27;3.70;;;1.00;;
80963;SDS011;70425;59.322;13.486;2023-08-08T11:32:22;1.77;;;1.10;;
80963;SDS011;70425;59.322;13.486;2023-08-08T11:35:21;2.00;;;1.27;;
80963;SDS011;70425;59.322;13.486;2023-08-08T11:38:23;1.27;;;1.10;;
80963;SDS011;70425;59.322;13.486;2023-08-08T11:41:13;1.10;;;1.00;;
80963;SDS011;70425;59.322;13.486;2023-08-08T11:44:06;0.90;;;0.90;;
80963;SDS011;70425;59.322;13.486;2023-08-08T11:47:00;0.80;;;0.80;;
80963;SDS011;70425;59.322;13.486;2023-08-08T11:53:53;0.80;;;0.80;;
80963;SDS011;70425;59.322;13.486;2023-08-08T11:56:53;0.80;;;0.80;;
80963;SDS011;70425;59.322;13.486;2023-08-08T11:59:42;1.13;;;0.80;;
80963;SDS011;70425;59.322;13.486;2023-08-08T12:02:41;2.03;;;1.00;;
80963;SDS011;70425;59.322;13.486;2023-08-08T12:05:38;1.00;;;1.00;;
80963;SDS011;70425;59.322;13.486;2023-08-08T12:08:29;1.80;;;1.20;;
80963;SDS011;70425;59.322;13.486;2023-08-08T12:24:27;1.00;;;1.00;;
80963;SDS011;70425;59.322;13.486;2023-08-08T12:30:12;2.43;;;1.00;;
80963;SDS011;70425;59.322;13.486;2023-08-08T12:33:04;1.00;;;1.00;;
80963;SDS011;70425;59.322;13.486;2023-08-08T12:35:53;2.20;;;1.27;;
80963;SDS011;70425;59.322;13.486;2023-08-08T12:41:36;1.23;;;1.10;;
80963;SDS011;70425;59.322;13.486;2023-08-08T12:44:34;1.10;;;1.10;;
80963;SDS011;70425;59.322;13.486;2023-08-08T12:47:28;1.00;;;1.00;;
80963;SDS011;70425;59.322;13.486;2023-08-08T12:50:18;1.00;;;1.00;;
80963;SDS011;70425;59.322;13.486;2023-08-08T13:03:31;1.77;;;0.97;;
80963;SDS011;70425;59.322;13.486;2023-08-08T13:06:21;1.30;;;1.20;;
80963;SDS011;70425;59.322;13.486;2023-08-08T13:09:11;1.20;;;1.10;;
80963;SDS011;70425;59.322;13.486;2023-08-08T13:12:03;1.03;;;0.90;;
80963;SDS011;70425;59.322;13.486;2023-08-08T13:14:53;0.97;;;0.97;;
80963;SDS011;70425;59.322;13.486;2023-08-08T13:17:42;1.27;;;1.17;;
80963;SDS011;70425;59.322;13.486;2023-08-08T13:33:41;1.40;;;1.00;;
80963;SDS011;70425;59.322;13.486;2023-08-08T13:39:11;1.10;;;1.10;;
80963;SDS011;70425;59.322;13.486;2023-08-08T13:42:00;2.97;;;1.10;;
80963;SDS011;70425;59.322;13.486;2023-08-08T13:44:55;1.87;;;1.10;;
80963;SDS011;70425;59.322;13.486;2023-08-08T13:47:46;4.00;;;1.20;;
80963;SDS011;70425;59.322;13.486;2023-08-08T13:50:36;1.20;;;1.03;;
80963;SDS011;70425;59.322;13.486;2023-08-08T13:53:24;1.10;;;1.10;;
80963;SDS011;70425;59.322;13.486;2023-08-08T13:56:19;1.70;;;1.00;;
80963;SDS011;70425;59.322;13.486;2023-08-08T14:02:00;1.87;;;1.10;;
80963;SDS011;70425;59.322;13.486;2023-08-08T14:07:48;1.10;;;1.00;;
80963;SDS011;70425;59.322;13.486;2023-08-08T14:10:40;5.50;;;1.27;;
80963;SDS011;70425;59.322;13.486;2023-08-08T14:13:30;1.00;;;1.00;;
80963;SDS011;70425;59.322;13.486;2023-08-08T14:16:21;2.30;;;1.37;;
80963;SDS011;70425;59.322;13.486;2023-08-08T14:19:12;1.50;;;1.40;;
80963;SDS011;70425;59.322;13.486;2023-08-08T14:22:07;3.00;;;1.30;;
80963;SDS011;70425;59.322;13.486;2023-08-08T14:25:00;1.27;;;1.20;;
80963;SDS011;70425;59.322;13.486;2023-08-08T14:27:52;1.87;;;1.03;;
80963;SDS011;70425;59.322;13.486;2023-08-08T14:31:01;1.20;;;0.90;;
80963;SDS011;70425;59.322;13.486;2023-08-08T14:33:54;1.07;;;0.97;;
80963;SDS011;70425;59.322;13.486;2023-08-08T14:36:43;3.10;;;1.10;;
80963;SDS011;70425;59.322;13.486;2023-08-08T14:39:43;1.33;;;1.20;;
80963;SDS011;70425;59.322;13.486;2023-08-08T14:42:50;1.10;;;1.10;;
80963;SDS011;70425;59.322;13.486;2023-08-08T14:45:41;2.17;;;1.10;;
80963;SDS011;70425;59.322;13.486;2023-08-08T14:48:31;2.10;;;1.20;;
80963;SDS011;70425;59.322;13.486;2023-08-08T14:51:20;1.50;;;1.30;;
80963;SDS011;70425;59.322;13.486;2023-08-08T14:54:10;1.20;;;1.20;;
80963;SDS011;70425;59.322;13.486;2023-08-08T14:59:44;1.27;;;1.20;;
80963;SDS011;70425;59.322;13.486;2023-08-08T15:02:35;2.33;;;1.27;;
80963;SDS011;70425;59.322;13.486;2023-08-08T15:05:27;1.20;;;1.10;;
80963;SDS011;70425;59.322;13.486;2023-08-08T15:10:58;1.53;;;1.43;;
80963;SDS011;70425;59.322;13.486;2023-08-08T15:13:47;3.27;;;1.40;;
80963;SDS011;70425;59.322;13.486;2023-08-08T15:16:30;1.40;;;1.30;;
80963;SDS011;70425;59.322;13.486;2023-08-08T15:19:19;1.97;;;1.30;;
80963;SDS011;70425;59.322;13.486;2023-08-08T15:22:10;1.93;;;1.40;;
80963;SDS011;70425;59.322;13.486;2023-08-08T15:25:00;7.17;;;1.73;;
80963;SDS011;70425;59.322;13.486;2023-08-08T15:27:50;3.17;;;1.27;;
80963;SDS011;70425;59.322;13.486;2023-08-08T15:30:38;2.60;;;1.43;;
80963;SDS011;70425;59.322;13.486;2023-08-08T15:33:27;3.70;;;1.53;;
80963;SDS011;70425;59.322;13.486;2023-08-08T15:36:18;1.63;;;1.43;;
80963;SDS011;70425;59.322;13.486;2023-08-08T15:39:08;1.40;;;1.30;;
80963;SDS011;70425;59.322;13.486;2023-08-08T15:41:58;1.77;;;1.40;;
80963;SDS011;70425;59.322;13.486;2023-08-08T15:57:50;1.80;;;1.50;;
80963;SDS011;70425;59.322;13.486;2023-08-08T16:00:39;1.60;;;1.50;;
80963;SDS011;70425;59.322;13.486;2023-08-08T16:16:44;1.60;;;1.50;;
80963;SDS011;70425;59.322;13.486;2023-08-08T16:19:33;3.00;;;1.40;;
80963;SDS011;70425;59.322;13.486;2023-08-08T16:22:22;1.60;;;1.50;;
80963;SDS011;70425;59.322;13.486;2023-08-08T16:25:11;1.73;;;1.40;;
80963;SDS011;70425;59.322;13.486;2023-08-08T16:28:00;2.50;;;1.30;;
80963;SDS011;70425;59.322;13.486;2023-08-08T16:30:52;1.47;;;1.40;;
80963;SDS011;70425;59.322;13.486;2023-08-08T16:33:45;1.27;;;1.20;;
80963;SDS011;70425;59.322;13.486;2023-08-08T16:36:35;1.20;;;1.20;;
80963;SDS011;70425;59.322;13.486;2023-08-08T16:39:25;2.50;;;1.30;;
80963;SDS011;70425;59.322;13.486;2023-08-08T16:42:14;1.10;;;1.10;;
80963;SDS011;70425;59.322;13.486;2023-08-08T16:44:57;1.00;;;1.00;;
80963;SDS011;70425;59.322;13.486;2023-08-08T16:47:46;1.00;;;1.00;;
80963;SDS011;70425;59.322;13.486;2023-08-08T16:50:37;1.00;;;0.77;;
80963;SDS011;70425;59.322;13.486;2023-08-08T16:56:10;6.00;;;1.10;;
80963;SDS011;70425;59.322;13.486;2023-08-08T16:59:03;1.67;;;0.90;;
80963;SDS011;70425;59.322;13.486;2023-08-08T17:01:52;1.13;;;0.90;;
80963;SDS011;70425;59.322;13.486;2023-08-08T17:04:41;1.13;;;1.00;;
80963;SDS011;70425;59.322;13.486;2023-08-08T17:07:31;3.50;;;0.87;;
80963;SDS011;70425;59.322;13.486;2023-08-08T17:10:23;3.13;;;1.30;;
80963;SDS011;70425;59.322;13.486;2023-08-08T17:13:12;2.40;;;1.13;;
80963;SDS011;70425;59.322;13.486;2023-08-08T17:16:01;2.57;;;1.20;;
80963;SDS011;70425;59.322;13.486;2023-08-08T17:18:52;7.67;;;1.67;;
80963;SDS011;70425;59.322;13.486;2023-08-08T17:21:41;3.67;;;0.97;;
80963;SDS011;70425;59.322;13.486;2023-08-08T17:24:30;3.87;;;0.97;;
80963;SDS011;70425;59.322;13.486;2023-08-08T17:27:18;6.87;;;1.30;;
80963;SDS011;70425;59.322;13.486;2023-08-08T17:30:08;11.00;;;1.30;;
80963;SDS011;70425;59.322;13.486;2023-08-08T17:32:58;10.53;;;1.47;;
80963;SDS011;70425;59.322;13.486;2023-08-08T17:38:36;6.67;;;1.50;;
80963;SDS011;70425;59.322;13.486;2023-08-08T17:44:26;11.10;;;1.50;;
80963;SDS011;70425;59.322;13.486;2023-08-08T17:47:17;12.93;;;1.30;;
80963;SDS011;70425;59.322;13.486;2023-08-08T17:50:07;6.93;;;1.50;;
80963;SDS011;70425;59.322;13.486;2023-08-08T17:52:56;8.97;;;1.30;;
80963;SDS011;70425;59.322;13.486;2023-08-08T17:55:45;16.27;;;1.73;;
80963;SDS011;70425;59.322;13.486;2023-08-08T17:58:39;12.70;;;1.67;;
80963;SDS011;70425;59.322;13.486;2023-08-08T18:18:50;13.03;;;2.40;;
80963;SDS011;70425;59.322;13.486;2023-08-08T18:21:56;12.50;;;2.00;;
80963;SDS011;70425;59.322;13.486;2023-08-08T18:25:21;17.37;;;2.20;;
80963;SDS011;70425;59.322;13.486;2023-08-08T18:28:17;21.30;;;3.07;;
80963;SDS011;70425;59.322;13.486;2023-08-08T18:35:12;28.87;;;3.13;;
80963;SDS011;70425;59.322;13.486;2023-08-08T18:52:44;34.23;;;4.50;;
80963;SDS011;70425;59.322;13.486;2023-08-08T18:55:51;42.23;;;3.70;;
80963;SDS011;70425;59.322;13.486;2023-08-08T18:59:00;25.70;;;2.97;;
80963;SDS011;70425;59.322;13.486;2023-08-08T19:02:07;17.00;;;2.63;;
80963;SDS011;70425;59.322;13.486;2023-08-08T19:05:03;21.40;;;3.20;;
80963;SDS011;70425;59.322;13.486;2023-08-08T19:11:31;20.57;;;2.97;;
80963;SDS011;70425;59.322;13.486;2023-08-08T19:29:17;14.53;;;2.67;;
80963;SDS011;70425;59.322;13.486;2023-08-08T19:50:17;28.73;;;3.13;;
80963;SDS011;70425;59.322;13.486;2023-08-08T19:53:25;25.10;;;4.10;;
80963;SDS011;70425;59.322;13.486;2023-08-08T19:56:27;18.50;;;2.40;;
80963;SDS011;70425;59.322;13.486;2023-08-08T19:59:17;27.27;;;3.33;;
80963;SDS011;70425;59.322;13.486;2023-08-08T20:02:21;30.13;;;3.77;;
80963;SDS011;70425;59.322;13.486;2023-08-08T20:05:11;28.20;;;3.33;;
80963;SDS011;70425;59.322;13.486;2023-08-08T20:08:22;25.73;;;2.73;;
80963;SDS011;70425;59.322;13.486;2023-08-08T20:15:43;26.50;;;3.00;;
80963;SDS011;70425;59.322;13.486;2023-08-08T20:19:05;17.37;;;2.93;;
80963;SDS011;70425;59.322;13.486;2023-08-08T20:22:29;18.93;;;2.50;;
80963;SDS011;70425;59.322;13.486;2023-08-08T20:28:59;19.23;;;1.97;;
80963;SDS011;70425;59.322;13.486;2023-08-08T20:32:01;8.90;;;1.90;;
80963;SDS011;70425;59.322;13.486;2023-08-08T20:35:11;17.23;;;1.90;;
80963;SDS011;70425;59.322;13.486;2023-08-08T20:38:09;20.60;;;2.30;;
80963;SDS011;70425;59.322;13.486;2023-08-08T20:54:47;19.37;;;2.13;;
80963;SDS011;70425;59.322;13.486;2023-08-08T20:57:38;28.80;;;3.00;;
80963;SDS011;70425;59.322;13.486;2023-08-08T21:00:29;17.13;;;2.97;;
80963;SDS011;70425;59.322;13.486;2023-08-08T21:17:09;12.70;;;1.87;;
80963;SDS011;70425;59.322;13.486;2023-08-08T21:19:58;20.97;;;2.73;;
80963;SDS011;70425;59.322;13.486;2023-08-08T21:23:23;15.03;;;2.17;;
80963;SDS011;70425;59.322;13.486;2023-08-08T21:26:32;25.40;;;2.40;;
80963;SDS011;70425;59.322;13.486;2023-08-08T21:29:22;9.97;;;2.20;;
80963;SDS011;70425;59.322;13.486;2023-08-08T21:32:12;15.43;;;2.10;;
80963;SDS011;70425;59.322;13.486;2023-08-08T21:35:40;9.13;;;1.87;;
80963;SDS011;70425;59.322;13.486;2023-08-08T21:38:40;15.13;;;1.97;;
80963;SDS011;70425;59.322;13.486;2023-08-08T21:56:00;7.43;;;1.30;;
80963;SDS011;70425;59.322;13.486;2023-08-08T22:02:27;10.90;;;1.50;;
80963;SDS011;70425;59.322;13.486;2023-08-08T22:17:05;5.97;;;1.50;;
80963;SDS011;70425;59.322;13.486;2023-08-08T22:20:28;11.30;;;1.77;;
80963;SDS011;70425;59.322;13.486;2023-08-08T22:23:21;11.23;;;1.60;;
80963;SDS011;70425;59.322;13.486;2023-08-08T22:26:17;6.57;;;1.17;;
80963;SDS011;70425;59.322;13.486;2023-08-08T22:40:30;13.43;;;1.90;;
80963;SDS011;70425;59.322;13.486;2023-08-08T22:43:59;13.63;;;2.03;;
80963;SDS011;70425;59.322;13.486;2023-08-08T22:50:35;7.53;;;1.20;;
80963;SDS011;70425;59.322;13.486;2023-08-08T22:57:03;9.93;;;1.70;;
80963;SDS011;70425;59.322;13.486;2023-08-08T23:00:19;10.80;;;2.37;;
80963;SDS011;70425;59.322;13.486;2023-08-08T23:09:32;8.33;;;1.50;;
80963;SDS011;70425;59.322;13.486;2023-08-08T23:15:36;15.77;;;2.23;;
80963;SDS011;70425;59.322;13.486;2023-08-08T23:18:40;23.50;;;2.60;;
80963;SDS011;70425;59.322;13.486;2023-08-08T23:25:06;5.27;;;1.20;;
80963;SDS011;70425;59.322;13.486;2023-08-08T23:28:12;13.93;;;2.00;;
80963;SDS011;70425;59.322;13.486;2023-08-08T23:31:27;19.70;;;2.10;;
80963;SDS011;70425;59.322;13.486;2023-08-08T23:34:32;13.03;;;2.07;;
80963;SDS011;70425;59.322;13.486;2023-08-08T23:38:01;15.60;;;2.13;;
80963;SDS011;70425;59.322;13.486;2023-08-08T23:41:04;23.47;;;2.60;;
80963;SDS011;70425;59.322;13.486;2023-08-08T23:47:02;8.23;;;1.50;;
80963;SDS011;70425;59.322;13.486;2023-08-08T23:49:57;12.67;;;1.87;;
80963;SDS011;70425;59.322;13.486;2023-08-08T23:59:37;10.90;;;1.90;;
